Time;durP1;ratioP1;P1;durP2;ratioP2;P2;SDS_P1;SDS_P2;PMS_P1;PMS_P2;Temp;Humidity;BMP_temperature;BMP_pressure;BME280_temperature;BME280_humidity;BME280_pressure;Samples;Min_cycle;Max_cycle;Signal;HPM_P1;HPM_P2
2021/11/27 00:02:39;;;;;;;8.90;8.00;;;5.30;45.00;;;;;;10506602;28;20232;-77
2021/11/27 00:07:43;;;;;;;7.33;6.63;;;5.30;45.00;;;;;;10509481;28;20219;-71
2021/11/27 00:12:48;;;;;;;7.90;7.03;;;5.30;45.10;;;;;;10504404;28;20265;-71
2021/11/27 00:17:53;;;;;;;7.43;6.63;;;5.30;45.00;;;;;;10507329;28;20277;-72
2021/11/27 00:22:56;;;;;;;7.00;6.33;;;5.40;45.00;;;;;;10505148;28;20323;-72
2021/11/27 00:28:00;;;;;;;7.93;7.00;;;5.40;45.70;;;;;;10508045;28;20507;-77
2021/11/27 00:33:05;;;;;;;7.07;6.37;;;5.40;44.70;;;;;;10507076;28;20223;-76
2021/11/27 00:38:09;;;;;;;7.07;6.37;;;5.40;44.70;;;;;;10505959;28;20230;-77
2021/11/27 00:43:16;;;;;;;6.50;5.83;;;5.40;44.80;;;;;;10512977;28;20234;-76
2021/11/27 00:48:21;;;;;;;6.50;5.90;;;5.40;44.80;;;;;;10514023;28;20220;-73
2021/11/27 00:53:25;;;;;;;6.40;5.80;;;5.50;45.00;;;;;;10512613;28;20229;-71
2021/11/27 00:58:28;;;;;;;7.40;6.47;;;5.50;44.80;;;;;;10513851;28;20224;-73
2021/11/27 01:03:35;;;;;;;5.90;5.37;;;5.50;44.90;;;;;;10511743;28;20364;-73
2021/11/27 01:08:39;;;;;;;6.53;5.93;;;5.50;44.70;;;;;;10511123;28;20327;-73
2021/11/27 01:13:44;;;;;;;6.73;6.03;;;5.60;44.90;;;;;;10516780;28;20323;-77
2021/11/27 01:18:50;;;;;;;6.60;5.93;;;5.60;44.80;;;;;;10511494;28;20223;-77
2021/11/27 01:23:55;;;;;;;6.67;6.07;;;5.70;44.70;;;;;;10513358;28;20603;-77
2021/11/27 01:28:59;;;;;;;6.37;5.70;;;5.70;44.70;;;;;;10512159;28;20228;-77
2021/11/27 01:34:05;;;;;;;7.10;6.40;;;5.70;44.60;;;;;;10512052;28;20220;-76
2021/11/27 01:39:08;;;;;;;6.70;6.07;;;5.70;44.40;;;;;;10507756;28;20216;-72
2021/11/27 01:44:12;;;;;;;7.30;6.60;;;5.70;44.50;;;;;;10514799;28;20913;-78
2021/11/27 01:49:17;;;;;;;6.00;5.40;;;5.70;44.40;;;;;;10507307;28;20220;-72
2021/11/27 01:54:21;;;;;;;5.17;4.73;;;5.70;44.30;;;;;;10517124;28;20642;-78
2021/11/27 01:59:26;;;;;;;6.43;5.83;;;5.60;44.30;;;;;;10521507;28;20223;-73
2021/11/27 02:04:31;;;;;;;6.20;5.60;;;5.60;44.40;;;;;;10510255;28;20314;-77
2021/11/27 02:09:37;;;;;;;5.83;5.33;;;5.60;44.30;;;;;;10510378;28;20241;-73
2021/11/27 02:14:42;;;;;;;5.90;5.30;;;5.60;44.40;;;;;;10515792;28;20231;-79
2021/11/27 02:19:49;;;;;;;6.50;5.90;;;5.60;44.50;;;;;;10516737;28;20709;-73
2021/11/27 02:24:54;;;;;;;6.10;5.50;;;5.60;44.40;;;;;;10500581;28;20331;-73
2021/11/27 02:29:57;;;;;;;6.80;5.83;;;5.60;44.40;;;;;;10515090;28;20323;-73
2021/11/27 02:35:01;;;;;;;6.47;5.87;;;5.60;44.50;;;;;;10508153;28;20224;-73
2021/11/27 02:40:08;;;;;;;5.40;4.90;;;5.70;44.50;;;;;;10509622;28;20272;-73
2021/11/27 02:45:12;;;;;;;6.37;5.77;;;5.60;44.30;;;;;;10509298;28;20246;-77
2021/11/27 02:50:15;;;;;;;5.40;4.90;;;5.60;44.50;;;;;;10502049;28;20227;-71
2021/11/27 02:55:21;;;;;;;5.60;5.00;;;5.60;44.40;;;;;;10509938;28;20715;-78
2021/11/27 03:00:25;;;;;;;6.50;5.83;;;5.60;44.30;;;;;;10509228;28;20722;-77
2021/11/27 03:05:28;;;;;;;7.87;6.57;;;5.50;44.30;;;;;;10502249;28;20236;-77
2021/11/27 03:10:33;;;;;;;5.87;4.97;;;5.70;44.50;;;;;;10509350;28;20731;-77
2021/11/27 03:15:41;;;;;;;5.17;4.70;;;5.60;44.30;;;;;;10507699;28;20247;-77
2021/11/27 03:20:44;;;;;;;4.83;4.43;;;5.60;44.30;;;;;;10510943;28;20647;-73
2021/11/27 03:25:49;;;;;;;4.50;4.10;;;5.70;44.40;;;;;;10512900;28;20323;-73
2021/11/27 03:30:53;;;;;;;5.33;4.83;;;5.70;44.40;;;;;;10518544;28;20242;-78
2021/11/27 03:35:56;;;;;;;4.47;4.07;;;5.70;44.40;;;;;;10520051;28;20646;-78
2021/11/27 03:41:02;;;;;;;4.50;4.10;;;5.70;44.40;;;;;;10463931;28;20706;-73
2021/11/27 03:46:06;;;;;;;3.90;3.60;;;5.60;44.30;;;;;;10465501;28;20249;-73
2021/11/27 03:51:12;;;;;;;4.60;4.20;;;5.70;44.40;;;;;;10459982;28;20297;-73
2021/11/27 03:56:19;;;;;;;4.37;3.97;;;5.70;44.30;;;;;;10464093;28;20220;-73
2021/11/27 04:01:24;;;;;;;4.07;3.73;;;5.70;44.20;;;;;;10469285;28;20749;-78
2021/11/27 04:06:28;;;;;;;4.17;3.83;;;5.70;44.10;;;;;;10475846;28;20693;-78
2021/11/27 04:11:32;;;;;;;3.43;3.13;;;5.70;44.10;;;;;;10475415;28;20241;-72
2021/11/27 04:16:36;;;;;;;3.93;3.63;;;5.70;44.10;;;;;;10472770;28;20228;-72
2021/11/27 04:21:39;;;;;;;4.23;3.80;;;5.70;44.20;;;;;;10482073;28;20273;-71
2021/11/27 04:26:44;;;;;;;3.77;3.47;;;5.60;44.20;;;;;;10478676;28;20764;-71
2021/11/27 04:31:48;;;;;;;3.90;3.60;;;5.60;44.30;;;;;;10474635;28;20319;-78
2021/11/27 04:36:51;;;;;;;3.50;3.20;;;5.70;44.30;;;;;;10478182;28;20235;-77
2021/11/27 04:41:56;;;;;;;4.20;3.80;;;5.60;44.20;;;;;;10476009;28;20232;-72
2021/11/27 04:47:00;;;;;;;3.57;3.30;;;5.60;44.10;;;;;;10467894;28;20225;-72
2021/11/27 04:52:04;;;;;;;3.80;3.50;;;5.60;44.30;;;;;;10469274;28;20773;-72
2021/11/27 04:57:08;;;;;;;4.47;4.07;;;5.70;44.30;;;;;;10470250;28;20228;-73
2021/11/27 05:02:12;;;;;;;4.43;4.03;;;5.80;44.30;;;;;;10477272;28;20576;-73
2021/11/27 05:07:16;;;;;;;4.10;3.70;;;5.70;44.30;;;;;;10467354;28;20228;-73
2021/11/27 05:12:20;;;;;;;4.20;3.90;;;5.80;44.40;;;;;;10471420;28;20221;-71
2021/11/27 05:17:24;;;;;;;4.90;4.47;;;5.80;44.20;;;;;;10472337;28;20295;-73
2021/11/27 05:22:27;;;;;;;4.80;4.37;;;5.80;44.40;;;;;;10466068;28;20221;-77
2021/11/27 05:27:31;;;;;;;4.63;4.20;;;5.80;44.50;;;;;;10467795;28;20224;-77
2021/11/27 05:32:50;;;;;;;4.43;4.07;;;5.90;44.30;;;;;;10467777;28;20224;-77
2021/11/27 05:37:54;;;;;;;4.87;4.47;;;5.90;44.30;;;;;;10467385;28;20578;-77
2021/11/27 05:42:58;;;;;;;4.90;4.20;;;5.90;44.50;;;;;;10469588;28;20250;-77
2021/11/27 05:48:04;;;;;;;4.87;4.37;;;5.90;44.30;;;;;;10463428;28;20213;-74
2021/11/27 05:53:08;;;;;;;4.63;4.23;;;6.00;44.30;;;;;;10480835;28;20224;-76
2021/11/27 05:58:12;;;;;;;5.07;4.63;;;6.00;44.40;;;;;;10473053;28;20247;-71
2021/11/27 06:03:16;;;;;;;4.57;4.17;;;6.00;44.30;;;;;;10473394;28;20232;-77
2021/11/27 06:08:19;;;;;;;5.30;4.80;;;6.10;44.40;;;;;;10471153;28;20298;-76
2021/11/27 06:13:24;;;;;;;4.97;4.57;;;6.10;44.20;;;;;;10467333;28;20234;-71
2021/11/27 06:18:27;;;;;;;5.47;5.00;;;6.10;44.20;;;;;;10467936;28;20223;-71
2021/11/27 06:23:30;;;;;;;5.47;4.97;;;6.10;44.40;;;;;;10469917;28;20796;-71
2021/11/27 06:28:37;;;;;;;5.67;5.17;;;6.10;44.40;;;;;;10473892;28;20258;-77
2021/11/27 06:33:40;;;;;;;4.87;4.43;;;6.10;44.50;;;;;;10468691;28;20236;-72
2021/11/27 06:38:43;;;;;;;5.00;4.60;;;6.10;44.60;;;;;;10469356;28;20224;-76
2021/11/27 06:43:48;;;;;;;6.63;5.93;;;6.10;44.70;;;;;;10468675;28;20239;-76
2021/11/27 06:48:51;;;;;;;7.17;6.47;;;6.20;44.80;;;;;;10470058;28;20216;-76
2021/11/27 06:53:54;;;;;;;5.67;5.17;;;6.20;44.90;;;;;;10472415;28;20460;-77
2021/11/27 06:58:59;;;;;;;4.07;3.77;;;6.30;44.90;;;;;;10472147;28;20212;-71
2021/11/27 07:04:02;;;;;;;4.27;3.77;;;6.30;44.80;;;;;;10466254;28;20304;-72
2021/11/27 07:09:07;;;;;;;3.90;3.60;;;6.30;45.60;;;;;;10468255;28;20228;-74
2021/11/27 07:14:11;;;;;;;4.23;3.93;;;6.30;44.80;;;;;;10466556;28;20220;-70
2021/11/27 07:19:15;;;;;;;4.17;3.87;;;6.40;44.90;;;;;;10468589;28;20220;-75
2021/11/27 07:24:19;;;;;;;3.90;3.60;;;6.40;44.90;;;;;;10471689;28;20223;-77
2021/11/27 07:29:23;;;;;;;4.13;3.83;;;6.40;44.80;;;;;;10469198;28;20252;-71
2021/11/27 07:34:27;;;;;;;5.43;4.53;;;6.40;44.80;;;;;;10464769;28;20246;-76
2021/11/27 07:39:30;;;;;;;4.83;4.33;;;6.40;44.80;;;;;;10467720;28;20228;-70
2021/11/27 07:44:35;;;;;;;6.30;5.80;;;6.40;45.00;;;;;;10469134;28;20239;-72
2021/11/27 07:49:38;;;;;;;6.33;5.77;;;6.50;45.20;;;;;;10469206;28;20224;-75
2021/11/27 07:54:41;;;;;;;4.57;4.17;;;6.50;45.10;;;;;;10475707;28;20705;-76
2021/11/27 07:59:45;;;;;;;4.87;4.47;;;6.50;45.00;;;;;;10469825;28;20232;-76
2021/11/27 08:04:49;;;;;;;4.47;4.07;;;6.50;45.10;;;;;;10467766;28;20610;-75
2021/11/27 08:09:52;;;;;;;4.60;4.20;;;6.40;45.10;;;;;;10461490;28;20594;-75
2021/11/27 08:14:56;;;;;;;3.87;3.57;;;6.40;45.30;;;;;;10468745;28;20228;-74
2021/11/27 08:20:00;;;;;;;3.93;3.63;;;6.50;45.40;;;;;;10466949;28;20606;-74
2021/11/27 08:25:04;;;;;;;4.47;4.10;;;6.50;45.50;;;;;;10461160;28;20223;-74
2021/11/27 08:30:10;;;;;;;9.83;8.47;;;6.50;45.30;;;;;;10459446;28;20255;-73
2021/11/27 08:35:14;;;;;;;5.07;4.67;;;6.60;45.40;;;;;;10452590;28;20970;-73
2021/11/27 08:40:17;;;;;;;6.00;5.40;;;6.60;45.50;;;;;;10452979;28;20265;-73
2021/11/27 08:45:22;;;;;;;5.77;4.40;;;6.60;45.70;;;;;;10462849;28;20235;-73
2021/11/27 08:50:25;;;;;;;5.20;4.70;;;6.70;45.60;;;;;;10453533;28;20243;-73
2021/11/27 08:55:28;;;;;;;4.83;4.43;;;6.80;45.70;;;;;;10458536;28;20225;-73
2021/11/27 09:00:33;;;;;;;4.53;4.13;;;6.90;45.80;;;;;;10461018;28;20251;-74
2021/11/27 09:05:37;;;;;;;4.73;4.33;;;6.90;45.90;;;;;;10461589;28;20749;-74
2021/11/27 09:10:40;;;;;;;4.07;3.73;;;7.10;46.00;;;;;;10464084;28;20238;-75
2021/11/27 09:15:45;;;;;;;3.80;3.50;;;7.20;46.10;;;;;;10461671;28;20224;-74
2021/11/27 09:20:48;;;;;;;4.97;4.53;;;7.30;46.00;;;;;;10467766;28;20228;-74
2021/11/27 09:25:52;;;;;;;4.37;3.97;;;7.50;46.00;;;;;;10463904;28;20736;-75
2021/11/27 09:30:56;;;;;;;5.63;4.00;;;7.60;45.70;;;;;;10463897;28;20633;-77
2021/11/27 09:36:02;;;;;;;4.20;3.80;;;7.70;45.30;;;;;;10464434;28;20349;-71
2021/11/27 09:41:17;;;;;;;4.30;3.90;;;7.80;45.80;;;;;;10457020;28;20875;-70
2021/11/27 09:46:23;;;;;;;3.90;3.60;;;7.80;45.50;;;;;;10458821;28;20221;-71
2021/11/27 09:51:29;;;;;;;3.60;3.30;;;8.00;45.70;;;;;;10461680;28;20221;-71
2021/11/27 09:56:33;;;;;;;3.63;3.30;;;8.10;45.30;;;;;;10455114;28;20246;-71
2021/11/27 10:01:44;;;;;;;3.23;3.03;;;8.20;45.30;;;;;;10464780;28;20230;-71
2021/11/27 10:06:48;;;;;;;3.20;2.90;;;8.20;44.90;;;;;;10465020;28;20278;-71
2021/11/27 10:11:53;;;;;;;3.50;3.20;;;8.30;45.20;;;;;;10469116;28;20332;-72
2021/11/27 10:17:11;;;;;;;3.43;3.20;;;8.30;44.80;;;;;;10465645;28;20645;-71
2021/11/27 10:22:18;;;;;;;3.57;3.27;;;8.30;44.60;;;;;;10466529;28;20682;-71
2021/11/27 10:27:24;;;;;;;3.60;3.30;;;8.40;45.00;;;;;;10468417;28;20224;-71
2021/11/27 10:32:35;;;;;;;3.77;3.47;;;8.40;44.90;;;;;;10467275;28;20640;-75
2021/11/27 10:37:44;;;;;;;5.57;4.97;;;8.40;44.60;;;;;;10467947;28;20220;-74
2021/11/27 10:42:50;;;;;;;4.27;3.87;;;8.40;44.60;;;;;;10468099;28;20229;-74
2021/11/27 10:48:09;;;;;;;3.67;3.37;;;8.40;44.40;;;;;;10467333;28;20271;-71
2021/11/27 10:53:15;;;;;;;3.40;3.10;;;8.50;43.90;;;;;;10470660;28;20227;-71
2021/11/27 10:58:19;;;;;;;4.00;3.70;;;8.50;44.60;;;;;;10467253;28;20227;-71
2021/11/27 11:03:29;;;;;;;4.30;3.67;;;8.50;44.50;;;;;;10462893;28;20307;-71
2021/11/27 11:08:35;;;;;;;4.07;3.70;;;8.50;44.10;;;;;;10469797;28;20305;-72
2021/11/27 11:13:38;;;;;;;4.80;4.40;;;8.50;44.50;;;;;;10468791;28;20590;-69
2021/11/27 11:18:43;;;;;;;3.80;3.50;;;8.60;44.80;;;;;;10469476;28;20627;-70
2021/11/27 11:23:49;;;;;;;3.60;3.30;;;8.60;44.40;;;;;;10466727;28;20262;-70
2021/11/27 11:29:11;;;;;;;4.23;3.10;;;8.70;44.50;;;;;;10466475;28;20224;-71
2021/11/27 11:34:16;;;;;;;3.50;3.20;;;8.80;44.50;;;;;;10463533;28;20228;-73
2021/11/27 11:39:31;;;;;;;3.50;3.20;;;8.90;44.30;;;;;;10465718;28;20739;-70
2021/11/27 11:44:36;;;;;;;3.53;3.23;;;9.00;44.50;;;;;;10469997;28;20235;-70
2021/11/27 11:49:41;;;;;;;2.87;2.67;;;9.10;44.30;;;;;;10466330;28;20230;-69
2021/11/27 11:54:46;;;;;;;3.40;3.10;;;9.20;43.70;;;;;;10446686;23;20228;-70
2021/11/27 11:59:50;;;;;;;3.03;2.83;;;9.20;43.50;;;;;;10435593;28;20586;-70
2021/11/27 12:05:14;;;;;;;4.03;3.73;;;9.20;43.60;;;;;;10428517;28;20227;-71
2021/11/27 12:10:18;;;;;;;4.70;4.30;;;9.20;43.10;;;;;;10432197;28;20225;-70
2021/11/27 12:15:29;;;;;;;5.60;5.07;;;9.20;43.80;;;;;;10427263;28;20726;-70
2021/11/27 12:20:45;;;;;;;5.00;4.50;;;9.20;42.90;;;;;;10430846;28;20235;-71
2021/11/27 12:26:29;;;;;;;6.83;5.90;;;9.20;42.60;;;;;;10430714;28;20339;-71
2021/11/27 12:31:40;;;;;;;5.03;4.47;;;9.20;42.70;;;;;;10427917;28;20229;-71
2021/11/27 12:36:47;;;;;;;5.87;5.27;;;9.10;42.40;;;;;;10433625;28;20224;-70
2021/11/27 12:41:52;;;;;;;4.20;3.77;;;9.20;43.10;;;;;;10435015;28;20240;-70
2021/11/27 12:46:59;;;;;;;3.60;3.30;;;9.10;43.20;;;;;;10436576;28;20595;-70
2021/11/27 12:52:48;;;;;;;3.20;2.90;;;9.00;42.80;;;;;;10432930;28;20244;-70
2021/11/27 12:57:53;;;;;;;2.80;2.60;;;8.90;42.80;;;;;;10382432;28;20236;-71
2021/11/27 13:03:00;;;;;;;3.47;2.57;;;8.90;43.20;;;;;;10428468;28;20225;-71
2021/11/27 13:08:05;;;;;;;2.73;2.50;;;8.80;43.30;;;;;;10419431;28;20229;-71
2021/11/27 13:13:16;;;;;;;2.90;2.70;;;8.70;43.40;;;;;;10424016;28;20317;-70
2021/11/27 13:18:21;;;;;;;2.73;2.53;;;8.60;43.60;;;;;;10424928;28;21030;-70
2021/11/27 13:23:27;;;;;;;2.40;2.20;;;8.60;43.70;;;;;;10424323;28;20237;-70
2021/11/27 13:28:37;;;;;;;2.83;2.63;;;8.50;43.90;;;;;;10429396;28;20249;-70
2021/11/27 13:33:54;;;;;;;3.33;3.03;;;8.40;44.00;;;;;;10429173;28;20222;-70
2021/11/27 13:39:10;;;;;;;3.03;2.83;;;8.40;44.20;;;;;;10423229;28;20231;-70
2021/11/27 13:44:16;;;;;;;4.13;3.80;;;8.40;44.50;;;;;;10424963;28;20701;-70
2021/11/27 13:49:30;;;;;;;4.20;3.80;;;8.40;44.40;;;;;;10422336;28;20232;-70
2021/11/27 13:54:35;;;;;;;3.43;3.13;;;8.40;44.30;;;;;;10434291;28;20324;-70
2021/11/27 13:59:39;;;;;;;4.07;2.77;;;8.40;44.50;;;;;;10440153;28;20225;-70
2021/11/27 14:04:44;;;;;;;3.50;3.30;;;8.30;44.40;;;;;;10436799;28;20236;-70
2021/11/27 14:09:53;;;;;;;3.00;2.73;;;8.30;44.50;;;;;;10430218;28;20220;-70
2021/11/27 14:15:00;;;;;;;3.67;3.37;;;8.30;44.50;;;;;;10436098;28;20225;-71
2021/11/27 14:20:16;;;;;;;3.13;2.83;;;8.30;44.40;;;;;;10437609;28;20855;-71
2021/11/27 14:25:20;;;;;;;4.30;3.90;;;8.30;44.40;;;;;;10437949;28;20221;-71
2021/11/27 14:30:27;;;;;;;4.27;3.87;;;8.40;44.60;;;;;;10438333;28;20233;-70
2021/11/27 14:35:33;;;;;;;3.47;3.17;;;8.30;44.50;;;;;;10433433;28;20228;-70
2021/11/27 14:40:57;;;;;;;4.70;4.30;;;8.40;44.40;;;;;;10432950;28;20626;-69
2021/11/27 14:46:06;;;;;;;5.03;4.53;;;8.40;44.30;;;;;;10437879;28;20228;-70
2021/11/27 14:51:09;;;;;;;25.63;23.00;;;8.50;44.30;;;;;;10436138;28;20229;-70
2021/11/27 14:56:12;;;;;;;20.77;18.77;;;8.50;44.10;;;;;;10438803;28;20448;-70
2021/11/27 15:01:17;;;;;;;17.93;16.23;;;8.50;44.10;;;;;;10439192;28;20316;-70
2021/11/27 15:06:20;;;;;;;12.37;11.20;;;8.50;44.00;;;;;;10433250;28;20239;-71
2021/11/27 15:11:24;;;;;;;8.37;7.57;;;8.50;44.10;;;;;;10435218;28;20228;-72
2021/11/27 15:16:29;;;;;;;7.67;7.07;;;8.60;44.10;;;;;;10436022;28;20239;-72
2021/11/27 15:21:34;;;;;;;6.83;6.13;;;8.60;43.90;;;;;;10437909;28;20229;-69
2021/11/27 15:26:37;;;;;;;8.20;7.50;;;8.70;46.20;;;;;;10440741;28;20567;-69
2021/11/27 15:31:42;;;;;;;6.10;5.50;;;8.80;45.20;;;;;;10437195;28;20228;-71
2021/11/27 15:36:47;;;;;;;4.97;4.57;;;8.90;44.20;;;;;;10440094;28;20224;-71
2021/11/27 15:41:51;;;;;;;4.63;3.80;;;8.90;44.50;;;;;;10428007;28;20233;-71
2021/11/27 15:46:55;;;;;;;4.17;3.80;;;8.90;44.00;;;;;;10437912;28;20228;-71
2021/11/27 15:51:59;;;;;;;4.97;4.47;;;8.80;43.50;;;;;;10435554;28;20311;-70
2021/11/27 15:57:02;;;;;;;4.07;3.77;;;8.60;43.70;;;;;;10437800;28;20556;-70
2021/11/27 16:02:07;;;;;;;15.90;13.87;;;8.40;43.70;;;;;;10435446;28;20249;-70
2021/11/27 16:07:12;;;;;;;103.43;67.67;;;8.30;43.90;;;;;;10437556;28;21175;-70
2021/11/27 16:12:15;;;;;;;37.40;26.67;;;8.20;44.10;;;;;;10441518;28;20593;-70
2021/11/27 16:17:20;;;;;;;83.80;62.63;;;8.10;44.10;;;;;;10446387;28;20228;-71
2021/11/27 16:22:24;;;;;;;36.57;32.30;;;8.10;44.60;;;;;;10441036;28;20228;-71
2021/11/27 16:27:28;;;;;;;11.10;9.73;;;8.10;44.40;;;;;;10444221;28;20225;-71
2021/11/27 16:32:32;;;;;;;8.07;7.27;;;8.10;44.30;;;;;;10440016;28;20572;-70
2021/11/27 16:37:36;;;;;;;26.83;24.23;;;8.00;44.10;;;;;;10442469;28;20744;-69
2021/11/27 16:42:39;;;;;;;7.40;5.83;;;8.00;44.20;;;;;;10440598;28;20232;-70
2021/11/27 16:47:43;;;;;;;5.33;4.83;;;8.00;44.20;;;;;;10442242;28;20236;-70
2021/11/27 16:52:46;;;;;;;5.00;4.53;;;7.90;44.10;;;;;;10437627;28;20636;-70
2021/11/27 16:57:50;;;;;;;5.30;4.80;;;7.90;44.30;;;;;;10429075;28;20218;-70
2021/11/27 17:03:04;;;;;;;12.63;11.53;;;7.90;44.30;;;;;;10429932;28;20270;-70
2021/11/27 17:08:08;;;;;;;6.90;6.30;;;7.80;44.30;;;;;;10428369;28;20229;-70
2021/11/27 17:13:17;;;;;;;6.73;5.60;;;7.80;44.40;;;;;;10425932;28;20233;-70
2021/11/27 17:18:21;;;;;;;6.00;5.50;;;7.80;44.50;;;;;;10430183;28;20595;-70
2021/11/27 17:23:25;;;;;;;5.37;4.87;;;7.80;44.50;;;;;;10427953;28;20229;-70
2021/11/27 17:28:28;;;;;;;5.47;4.97;;;7.70;44.40;;;;;;10428964;28;20237;-70
2021/11/27 17:33:35;;;;;;;4.93;4.53;;;7.70;44.40;;;;;;10425729;28;20239;-70
2021/11/27 17:38:39;;;;;;;3.90;3.60;;;7.70;44.40;;;;;;10432118;28;20225;-70
2021/11/27 17:43:42;;;;;;;4.23;3.40;;;7.70;44.40;;;;;;10431029;28;20225;-70
2021/11/27 17:48:47;;;;;;;3.50;3.20;;;7.60;44.40;;;;;;10426074;28;20236;-70
2021/11/27 17:53:50;;;;;;;4.20;3.10;;;7.60;44.40;;;;;;10423262;23;20235;-76
2021/11/27 17:58:54;;;;;;;4.57;4.17;;;7.50;44.40;;;;;;10440677;28;20232;-77
2021/11/27 18:03:59;;;;;;;5.60;5.10;;;7.50;44.50;;;;;;10450673;28;21070;-76
2021/11/27 18:09:03;;;;;;;4.33;3.93;;;7.50;44.50;;;;;;10442374;28;20228;-75
2021/11/27 18:14:06;;;;;;;4.20;3.70;;;7.50;44.80;;;;;;10443305;28;20228;-76
2021/11/27 18:19:11;;;;;;;4.07;3.50;;;7.40;44.60;;;;;;10446553;28;20550;-76
2021/11/27 18:24:28;;;;;;;3.50;3.20;;;7.50;44.60;;;;;;10452879;28;20355;-76
2021/11/27 18:29:34;;;;;;;3.80;3.40;;;7.50;44.40;;;;;;10447208;28;20313;-77
2021/11/27 18:34:39;;;;;;;3.33;3.03;;;7.50;44.20;;;;;;10450199;28;20232;-76
2021/11/27 18:39:43;;;;;;;4.60;3.93;;;7.50;44.10;;;;;;10439796;28;20233;-76
2021/11/27 18:44:47;;;;;;;3.43;3.13;;;7.50;44.20;;;;;;10448904;28;20248;-75
2021/11/27 18:49:52;;;;;;;3.43;3.13;;;7.50;44.10;;;;;;10442459;28;20229;-76
2021/11/27 18:54:55;;;;;;;3.20;2.90;;;7.60;44.00;;;;;;10450825;28;20602;-75
2021/11/27 18:59:58;;;;;;;3.03;2.83;;;7.50;44.00;;;;;;10444873;28;20224;-76
2021/11/27 19:05:04;;;;;;;2.90;2.70;;;7.50;43.90;;;;;;10447581;28;20316;-76
2021/11/27 19:10:08;;;;;;;3.33;2.73;;;7.40;43.80;;;;;;10445847;28;20229;-76
2021/11/27 19:15:12;;;;;;;4.10;3.23;;;7.40;43.90;;;;;;10445063;28;20644;-76
2021/11/27 19:20:17;;;;;;;3.33;3.10;;;7.40;43.90;;;;;;10451481;28;20249;-76
2021/11/27 19:25:21;;;;;;;5.23;4.73;;;7.50;43.70;;;;;;10446093;28;20315;-76
2021/11/27 19:30:25;;;;;;;5.97;5.37;;;7.50;43.80;;;;;;10446356;28;20233;-76
2021/11/27 19:35:30;;;;;;;4.47;4.10;;;7.50;43.70;;;;;;10451473;28;20348;-76
2021/11/27 19:40:33;;;;;;;4.27;3.67;;;7.50;43.70;;;;;;10446876;28;20661;-76
2021/11/27 19:45:37;;;;;;;3.40;3.13;;;7.50;43.70;;;;;;10438274;28;20256;-76
2021/11/27 19:50:42;;;;;;;4.50;4.10;;;7.60;43.60;;;;;;10442697;28;20286;-76
2021/11/27 19:55:46;;;;;;;3.83;3.53;;;7.60;43.30;;;;;;10443585;28;20243;-76
2021/11/27 20:00:49;;;;;;;4.80;4.40;;;7.60;43.40;;;;;;10448272;28;20217;-76
2021/11/27 20:05:54;;;;;;;5.73;5.23;;;7.60;43.20;;;;;;10445790;28;20221;-76
2021/11/27 20:10:58;;;;;;;8.33;7.53;;;7.60;42.80;;;;;;10445490;28;20261;-76
2021/11/27 20:16:02;;;;;;;6.77;5.20;;;7.50;42.90;;;;;;10454373;28;20225;-76
2021/11/27 20:21:08;;;;;;;6.10;5.60;;;7.50;42.70;;;;;;10447758;28;20233;-76
2021/11/27 20:26:13;;;;;;;6.60;5.30;;;7.40;42.70;;;;;;10447094;28;20239;-76
2021/11/27 20:31:18;;;;;;;10.97;10.07;;;7.40;42.80;;;;;;10437690;28;20695;-76
2021/11/27 20:36:24;;;;;;;17.60;12.60;;;7.30;42.60;;;;;;10440238;28;20225;-76
2021/11/27 20:41:27;;;;;;;12.60;11.30;;;7.30;42.70;;;;;;10439568;28;20233;-76
2021/11/27 20:46:31;;;;;;;14.93;13.40;;;7.20;42.80;;;;;;10442383;28;20703;-76
2021/11/27 20:51:37;;;;;;;7.90;7.20;;;7.10;42.70;;;;;;10446399;28;20278;-75
2021/11/27 20:56:40;;;;;;;6.90;6.20;;;7.00;42.90;;;;;;10450723;28;20228;-75
2021/11/27 21:01:44;;;;;;;5.77;5.27;;;7.00;43.00;;;;;;10449872;28;20347;-76
2021/11/27 21:06:49;;;;;;;4.57;4.17;;;7.00;43.10;;;;;;10458486;28;20233;-76
2021/11/27 21:11:54;;;;;;;6.23;4.60;;;6.90;43.00;;;;;;10444467;28;20323;-76
2021/11/27 21:16:58;;;;;;;4.87;4.47;;;7.00;43.10;;;;;;10451091;28;20320;-75
2021/11/27 21:22:03;;;;;;;8.07;7.37;;;7.00;43.00;;;;;;10446480;28;20243;-73
2021/11/27 21:27:06;;;;;;;7.23;6.63;;;6.90;42.70;;;;;;10463751;28;20225;-75
2021/11/27 21:32:10;;;;;;;8.33;7.53;;;6.90;42.90;;;;;;10457630;28;20567;-73
2021/11/27 21:37:15;;;;;;;8.47;7.40;;;6.80;42.70;;;;;;10458771;28;21047;-73
2021/11/27 21:42:19;;;;;;;9.03;8.13;;;6.80;42.90;;;;;;10456762;28;20715;-72
2021/11/27 21:47:26;;;;;;;9.40;8.50;;;6.70;43.00;;;;;;10459647;28;20995;-72
2021/11/27 21:52:31;;;;;;;8.83;8.00;;;6.70;42.90;;;;;;10461768;28;20225;-73
2021/11/27 21:57:34;;;;;;;9.87;8.97;;;6.70;42.70;;;;;;10458394;28;20259;-74
2021/11/27 22:02:37;;;;;;;8.33;7.53;;;6.70;42.70;;;;;;10464833;28;20232;-74
2021/11/27 22:07:42;;;;;;;10.63;9.47;;;6.60;42.80;;;;;;10456216;28;20323;-73
2021/11/27 22:12:46;;;;;;;8.17;7.43;;;6.50;43.00;;;;;;10466154;28;20236;-74
2021/11/27 22:17:49;;;;;;;6.83;6.07;;;6.50;43.10;;;;;;10459689;28;20242;-73
2021/11/27 22:22:54;;;;;;;6.23;5.30;;;6.60;43.00;;;;;;10449078;28;20232;-73
2021/11/27 22:27:58;;;;;;;5.83;5.33;;;6.50;42.90;;;;;;10440015;28;20233;-73
2021/11/27 22:33:01;;;;;;;8.00;7.20;;;6.60;43.10;;;;;;10439695;28;20253;-73
2021/11/27 22:38:06;;;;;;;7.97;7.17;;;6.60;43.00;;;;;;10444519;28;20699;-72
2021/11/27 22:43:10;;;;;;;6.93;6.30;;;6.60;42.80;;;;;;10439918;28;20836;-73
2021/11/27 22:48:13;;;;;;;7.13;6.50;;;6.50;42.80;;;;;;10442536;28;20235;-73
2021/11/27 22:53:18;;;;;;;9.20;8.30;;;6.50;42.90;;;;;;10446136;28;20228;-72
2021/11/27 22:58:21;;;;;;;8.47;7.67;;;6.40;43.00;;;;;;10436291;28;21134;-73
2021/11/27 23:03:25;;;;;;;7.77;7.07;;;6.50;43.20;;;;;;10441858;28;20225;-73
2021/11/27 23:08:30;;;;;;;8.93;8.03;;;6.40;43.10;;;;;;10441981;28;20957;-73
2021/11/27 23:13:34;;;;;;;8.00;7.30;;;6.40;43.20;;;;;;10444029;28;20217;-73
2021/11/27 23:18:42;;;;;;;7.93;7.13;;;6.40;43.20;;;;;;10436917;28;20228;-73
2021/11/27 23:23:47;;;;;;;6.67;5.97;;;6.40;43.20;;;;;;10440977;28;20221;-72
2021/11/27 23:28:52;;;;;;;7.47;6.30;;;6.40;43.20;;;;;;10443351;28;20997;-73
2021/11/27 23:33:55;;;;;;;7.60;5.70;;;6.50;43.20;;;;;;10445732;28;20224;-72
2021/11/27 23:39:00;;;;;;;6.53;6.03;;;6.50;43.20;;;;;;10434828;28;20574;-73
2021/11/27 23:44:04;;;;;;;6.23;5.63;;;6.50;43.10;;;;;;10432228;28;20227;-73
2021/11/27 23:49:07;;;;;;;6.97;6.27;;;6.50;43.20;;;;;;10439839;28;20237;-73
2021/11/27 23:54:12;;;;;;;7.00;6.33;;;6.50;43.00;;;;;;10436932;28;20225;-73
2021/11/27 23:59:15;;;;;;;6.07;5.47;;;6.40;42.90;;;;;;10443213;28;20251;-72
